Time;durP1;ratioP1;P1;durP2;ratioP2;P2;SDS_P1;SDS_P2;PMS_P1;PMS_P2;Temp;Humidity;BMP_temperature;BMP_pressure;BME280_temperature;BME280_humidity;BME280_pressure;Samples;Min_cycle;Max_cycle;Signal;HPM_P1;HPM_P2
2020/12/08 00:00:56;;;;;;;18.33;11.52;;;5.80;67.30;;;;;;2074309;28;20571;-77
2020/12/08 00:01:56;;;;;;;17.17;11.77;;;5.80;67.40;;;;;;2078742;28;20040;-76
2020/12/08 00:02:57;;;;;;;17.45;12.25;;;5.80;67.40;;;;;;2082987;28;20106;-76
2020/12/08 00:03:58;;;;;;;16.90;11.68;;;5.80;67.50;;;;;;2075350;28;20351;-76
2020/12/08 00:04:58;;;;;;;15.80;11.32;;;5.80;67.50;;;;;;2075177;28;20026;-76
2020/12/08 00:05:59;;;;;;;14.90;11.60;;;5.80;67.60;;;;;;2084343;28;20422;-75
2020/12/08 00:06:59;;;;;;;18.02;12.55;;;5.80;67.70;;;;;;2074333;28;20461;-76
2020/12/08 00:08:03;;;;;;;18.80;12.20;;;5.80;67.80;;;;;;2074707;28;20080;-75
2020/12/08 00:09:04;;;;;;;18.10;12.57;;;5.80;67.80;;;;;;2083320;28;20118;-76
2020/12/08 00:10:05;;;;;;;17.35;12.93;;;5.80;67.80;;;;;;2082849;28;20029;-76
2020/12/08 00:11:05;;;;;;;18.40;12.88;;;5.80;67.90;;;;;;2074450;28;20120;-76
2020/12/08 00:12:06;;;;;;;19.20;12.13;;;5.80;67.90;;;;;;2069404;28;20456;-75
2020/12/08 00:13:07;;;;;;;19.60;12.35;;;5.80;68.00;;;;;;2073823;28;20026;-76
2020/12/08 00:14:08;;;;;;;17.48;12.25;;;5.80;68.00;;;;;;2082608;28;20060;-75
2020/12/08 00:15:08;;;;;;;21.17;12.38;;;5.80;68.00;;;;;;2083158;28;20034;-76
2020/12/08 00:16:10;;;;;;;19.67;12.77;;;5.80;68.10;;;;;;2082014;28;20029;-76
2020/12/08 00:17:10;;;;;;;16.88;11.77;;;5.80;68.10;;;;;;2083344;28;20033;-76
2020/12/08 00:18:11;;;;;;;17.13;12.13;;;5.80;68.10;;;;;;2084293;28;20033;-76
2020/12/08 00:19:12;;;;;;;21.80;13.45;;;5.80;68.10;;;;;;2082939;28;20090;-75
2020/12/08 00:20:18;;;;;;;21.42;12.60;;;5.80;68.20;;;;;;2084099;28;20025;-76
2020/12/08 00:21:18;;;;;;;21.77;13.13;;;5.80;68.20;;;;;;2083922;28;20355;-76
2020/12/08 00:22:19;;;;;;;17.17;11.82;;;5.80;68.30;;;;;;2083112;28;20018;-75
2020/12/08 00:23:19;;;;;;;18.25;12.25;;;5.80;68.30;;;;;;2083704;28;20017;-76
2020/12/08 00:24:20;;;;;;;21.33;12.73;;;5.80;68.30;;;;;;2084956;28;20040;-75
2020/12/08 00:25:20;;;;;;;17.25;11.73;;;5.80;68.40;;;;;;2075828;28;20041;-76
2020/12/08 00:26:21;;;;;;;15.82;12.32;;;5.80;68.40;;;;;;2075718;28;20084;-75
2020/12/08 00:27:22;;;;;;;17.15;12.48;;;5.80;68.40;;;;;;2084511;28;20112;-76
2020/12/08 00:28:23;;;;;;;21.00;12.48;;;5.80;68.50;;;;;;2076887;28;20039;-76
2020/12/08 00:29:23;;;;;;;17.85;13.13;;;5.80;68.40;;;;;;2072675;28;20036;-75
2020/12/08 00:30:24;;;;;;;23.60;13.57;;;5.80;68.40;;;;;;2084941;28;20048;-75
2020/12/08 00:31:28;;;;;;;18.50;13.02;;;5.90;68.50;;;;;;2073940;28;20387;-76
2020/12/08 00:32:28;;;;;;;20.60;12.65;;;5.90;68.60;;;;;;2074515;28;20029;-75
2020/12/08 00:33:29;;;;;;;18.48;13.25;;;5.80;68.50;;;;;;2074490;28;20361;-76
2020/12/08 00:34:29;;;;;;;17.50;13.07;;;5.90;68.50;;;;;;2074958;28;20525;-76
2020/12/08 00:35:30;;;;;;;21.60;13.30;;;5.90;68.50;;;;;;2074348;28;20496;-76
2020/12/08 00:36:31;;;;;;;20.05;13.75;;;5.90;68.60;;;;;;2085119;28;20026;-75
2020/12/08 00:37:31;;;;;;;18.80;13.70;;;5.90;68.50;;;;;;2083886;28;20125;-74
2020/12/08 00:38:32;;;;;;;21.58;14.57;;;5.90;68.50;;;;;;2074074;28;21497;-74
2020/12/08 00:39:33;;;;;;;20.20;13.80;;;5.90;68.50;;;;;;2066861;28;20061;-74
2020/12/08 00:40:33;;;;;;;20.30;13.88;;;5.90;68.60;;;;;;2075227;28;20065;-74
2020/12/08 00:41:34;;;;;;;21.20;14.27;;;5.90;68.50;;;;;;2083801;28;20155;-75
2020/12/08 00:42:39;;;;;;;18.23;13.82;;;5.90;68.50;;;;;;2082681;28;20017;-75
2020/12/08 00:43:39;;;;;;;22.70;14.27;;;5.80;68.50;;;;;;2083179;28;20030;-74
2020/12/08 00:44:40;;;;;;;22.45;14.43;;;5.90;68.50;;;;;;2082920;28;20289;-74
2020/12/08 00:45:41;;;;;;;19.83;13.18;;;5.90;68.50;;;;;;2082868;28;20033;-75
2020/12/08 00:46:46;;;;;;;22.08;14.68;;;5.90;68.50;;;;;;2082232;28;20677;-75
2020/12/08 00:47:47;;;;;;;26.23;13.88;;;5.90;68.50;;;;;;2082772;28;20071;-73
2020/12/08 00:48:48;;;;;;;21.63;13.88;;;5.90;68.50;;;;;;2083401;28;20449;-74
2020/12/08 00:49:48;;;;;;;23.20;15.00;;;5.90;68.50;;;;;;2083989;28;20104;-74
2020/12/08 00:50:49;;;;;;;20.65;14.40;;;5.90;68.40;;;;;;2083222;28;20415;-76
2020/12/08 00:51:58;;;;;;;22.48;14.45;;;5.90;68.40;;;;;;2082042;28;20033;-76
2020/12/08 00:52:58;;;;;;;23.45;15.20;;;5.90;68.40;;;;;;2084015;28;20044;-76
2020/12/08 00:54:01;;;;;;;24.42;15.30;;;5.90;68.40;;;;;;2083530;28;20108;-73
2020/12/08 00:55:01;;;;;;;22.20;15.30;;;5.90;68.30;;;;;;2074046;28;20100;-76
2020/12/08 00:56:08;;;;;;;23.40;15.00;;;5.90;68.40;;;;;;2074531;28;20092;-76
2020/12/08 00:57:09;;;;;;;23.58;14.27;;;5.90;68.40;;;;;;2083643;28;20543;-76
2020/12/08 00:58:10;;;;;;;19.70;13.48;;;5.90;68.30;;;;;;2075038;28;20037;-76
2020/12/08 00:59:13;;;;;;;22.75;14.70;;;5.90;68.30;;;;;;2074240;28;20037;-77
2020/12/08 01:00:13;;;;;;;22.75;14.68;;;5.90;68.30;;;;;;2083536;28;20025;-76
2020/12/08 01:01:14;;;;;;;21.85;15.15;;;5.90;68.30;;;;;;2083053;28;20060;-76
2020/12/08 01:02:18;;;;;;;22.45;15.25;;;5.90;68.30;;;;;;2082925;28;20067;-76
2020/12/08 01:03:18;;;;;;;24.35;15.45;;;5.90;68.30;;;;;;2084069;28;20029;-76
2020/12/08 01:04:19;;;;;;;22.10;14.93;;;5.80;68.20;;;;;;2083838;28;20025;-76
2020/12/08 01:05:19;;;;;;;25.98;15.52;;;5.90;68.30;;;;;;2075023;28;20021;-76
2020/12/08 01:06:20;;;;;;;26.60;14.55;;;5.80;68.30;;;;;;2075252;28;20022;-76
2020/12/08 01:07:20;;;;;;;21.70;14.35;;;5.90;68.40;;;;;;2074338;28;20057;-77
2020/12/08 01:08:21;;;;;;;21.02;14.15;;;5.80;68.40;;;;;;2076595;28;20064;-76
2020/12/08 01:09:21;;;;;;;22.58;14.95;;;5.90;68.40;;;;;;2075709;28;20572;-77
2020/12/08 01:10:22;;;;;;;20.05;13.73;;;5.80;68.40;;;;;;2076649;28;20108;-77
2020/12/08 01:11:23;;;;;;;20.23;14.38;;;5.80;68.30;;;;;;2085149;28;20021;-76
2020/12/08 01:12:23;;;;;;;24.17;15.18;;;5.80;68.30;;;;;;2085219;28;20037;-76
2020/12/08 01:13:24;;;;;;;24.48;14.60;;;5.80;68.30;;;;;;2086165;28;20107;-76
2020/12/08 01:14:24;;;;;;;20.95;13.68;;;5.80;68.30;;;;;;2074758;28;20030;-76
2020/12/08 01:15:25;;;;;;;22.27;13.95;;;5.80;68.20;;;;;;2075888;28;20116;-77
2020/12/08 01:16:26;;;;;;;21.27;14.45;;;5.80;68.20;;;;;;2084239;28;20928;-76
2020/12/08 01:17:26;;;;;;;19.90;14.20;;;5.80;68.30;;;;;;2084719;28;20098;-77
2020/12/08 01:18:27;;;;;;;21.92;14.15;;;5.80;68.30;;;;;;2084806;28;20194;-77
2020/12/08 01:19:28;;;;;;;21.23;14.25;;;5.80;68.20;;;;;;2084920;28;20037;-76
2020/12/08 01:20:28;;;;;;;25.45;15.40;;;5.80;68.20;;;;;;2085118;28;20032;-76
2020/12/08 01:21:29;;;;;;;23.38;15.32;;;5.80;68.20;;;;;;2075470;28;20021;-76
2020/12/08 01:22:29;;;;;;;19.50;13.90;;;5.80;68.20;;;;;;2072401;28;20542;-75
2020/12/08 01:23:30;;;;;;;25.13;14.85;;;5.80;68.20;;;;;;2070058;28;20034;-76
2020/12/08 01:24:30;;;;;;;20.98;14.60;;;5.80;68.10;;;;;;2078146;28;20022;-76
2020/12/08 01:25:32;;;;;;;20.88;14.85;;;5.80;68.10;;;;;;2072044;28;20069;-76
2020/12/08 01:26:33;;;;;;;20.35;13.90;;;5.80;68.10;;;;;;2081812;28;20021;-74
2020/12/08 01:27:34;;;;;;;21.73;14.20;;;5.80;68.00;;;;;;2085179;28;20436;-74
2020/12/08 01:28:35;;;;;;;19.65;14.30;;;5.70;67.90;;;;;;2086459;28;20062;-76
2020/12/08 01:29:35;;;;;;;21.77;14.85;;;5.80;67.90;;;;;;2084511;28;20139;-76
2020/12/08 01:30:36;;;;;;;24.63;14.85;;;5.70;67.80;;;;;;2084765;28;20035;-75
2020/12/08 01:31:36;;;;;;;21.10;13.73;;;5.70;68.50;;;;;;2085032;28;20032;-76
2020/12/08 01:32:37;;;;;;;18.17;13.43;;;5.70;67.90;;;;;;2084807;28;20033;-76
2020/12/08 01:33:37;;;;;;;19.90;13.80;;;5.70;67.90;;;;;;2084990;28;20041;-76
2020/12/08 01:34:38;;;;;;;22.10;14.23;;;5.70;67.90;;;;;;2085965;28;20064;-77
2020/12/08 01:35:39;;;;;;;24.00;14.98;;;5.70;67.80;;;;;;2084572;28;20022;-76
2020/12/08 01:36:39;;;;;;;17.83;13.98;;;5.70;67.80;;;;;;2075121;28;20030;-76
2020/12/08 01:37:40;;;;;;;21.55;14.07;;;5.70;67.90;;;;;;2076363;28;20092;-76
2020/12/08 01:38:40;;;;;;;21.77;14.60;;;5.70;67.80;;;;;;2085015;28;20028;-77
2020/12/08 01:39:41;;;;;;;24.95;14.50;;;5.70;67.90;;;;;;2084651;28;20039;-76
2020/12/08 01:40:41;;;;;;;21.90;14.50;;;5.70;67.80;;;;;;2085135;28;20040;-76
2020/12/08 01:41:42;;;;;;;23.50;14.50;;;5.60;67.60;;;;;;2076360;28;20488;-76
2020/12/08 01:42:42;;;;;;;22.30;14.25;;;5.70;67.70;;;;;;2076449;28;20056;-76
2020/12/08 01:43:51;;;;;;;22.77;14.82;;;5.70;67.70;;;;;;2077226;28;20466;-76
2020/12/08 01:44:51;;;;;;;17.88;12.88;;;5.70;68.50;;;;;;2077968;28;20407;-77
2020/12/08 01:45:53;;;;;;;21.33;12.45;;;5.70;67.80;;;;;;2076508;28;20113;-75
2020/12/08 01:46:53;;;;;;;20.33;13.40;;;5.60;67.70;;;;;;2077342;28;20025;-77
2020/12/08 01:47:54;;;;;;;19.17;13.25;;;5.60;67.70;;;;;;2085670;28;20031;-76
2020/12/08 01:48:57;;;;;;;21.55;14.25;;;5.60;67.70;;;;;;2084643;28;20056;-77
2020/12/08 01:49:57;;;;;;;18.67;13.10;;;5.60;67.70;;;;;;2085674;28;20192;-76
2020/12/08 01:50:58;;;;;;;18.95;13.75;;;5.60;67.60;;;;;;2085175;28;20100;-76
2020/12/08 01:51:58;;;;;;;21.08;13.57;;;5.60;67.70;;;;;;2084687;28;20029;-76
2020/12/08 01:52:59;;;;;;;21.45;14.15;;;5.60;67.80;;;;;;2085408;28;20033;-76
2020/12/08 01:54:00;;;;;;;22.17;14.38;;;5.60;67.80;;;;;;2085557;28;20033;-75
2020/12/08 01:55:03;;;;;;;20.20;13.30;;;5.60;67.80;;;;;;2076472;28;20051;-76
2020/12/08 01:56:03;;;;;;;20.70;13.77;;;5.60;67.90;;;;;;2077437;28;20112;-76
2020/12/08 01:57:04;;;;;;;20.27;13.80;;;5.60;67.80;;;;;;2085566;28;20028;-76
2020/12/08 01:58:21;;;;;;;20.77;13.70;;;5.60;67.80;;;;;;2085005;28;20487;-76
2020/12/08 01:59:22;;;;;;;18.85;13.50;;;5.50;67.70;;;;;;2083835;28;20086;-76
2020/12/08 02:00:22;;;;;;;18.50;13.15;;;5.60;67.80;;;;;;2084992;28;20676;-76
2020/12/08 02:01:23;;;;;;;17.00;12.82;;;5.50;67.80;;;;;;2076030;28;20526;-76
2020/12/08 02:02:24;;;;;;;19.20;13.13;;;5.60;67.90;;;;;;2067795;28;20026;-76
2020/12/08 02:03:26;;;;;;;20.92;13.20;;;5.60;68.00;;;;;;2076569;28;20041;-76
2020/12/08 02:04:27;;;;;;;17.08;13.18;;;5.60;68.10;;;;;;2086418;28;20143;-76
2020/12/08 02:05:27;;;;;;;18.65;13.63;;;5.50;68.10;;;;;;2084461;28;20111;-76
2020/12/08 02:06:28;;;;;;;19.00;12.38;;;5.50;68.20;;;;;;2075613;28;20048;-76
2020/12/08 02:07:29;;;;;;;19.15;13.25;;;5.50;68.30;;;;;;2068234;28;20038;-76
2020/12/08 02:08:30;;;;;;;18.40;12.60;;;5.50;68.50;;;;;;2074918;28;20113;-76
2020/12/08 02:09:34;;;;;;;20.75;13.13;;;5.50;68.60;;;;;;2084674;28;20121;-76
2020/12/08 02:10:36;;;;;;;20.25;13.35;;;5.60;68.90;;;;;;2085591;28;20319;-76
2020/12/08 02:11:36;;;;;;;16.83;12.20;;;5.60;69.00;;;;;;2084773;28;20336;-76
2020/12/08 02:12:37;;;;;;;16.38;12.27;;;5.60;69.00;;;;;;2084587;28;20082;-76
2020/12/08 02:13:37;;;;;;;18.75;12.10;;;5.60;69.10;;;;;;2084873;28;20028;-77
2020/12/08 02:14:38;;;;;;;18.98;12.82;;;5.60;69.20;;;;;;2084441;28;20029;-76
2020/12/08 02:15:38;;;;;;;17.95;12.45;;;5.60;69.20;;;;;;2084716;28;20510;-76
2020/12/08 02:16:39;;;;;;;16.52;12.55;;;5.70;69.40;;;;;;2082648;28;20077;-77
2020/12/08 02:17:39;;;;;;;19.33;13.10;;;5.70;69.50;;;;;;2075651;28;20495;-76
2020/12/08 02:18:40;;;;;;;17.58;12.63;;;5.70;69.50;;;;;;2075235;28;20032;-74
2020/12/08 02:19:44;;;;;;;17.13;13.00;;;5.70;69.50;;;;;;2076579;28;20021;-74
2020/12/08 02:20:44;;;;;;;18.10;13.10;;;5.70;69.50;;;;;;2083570;28;20043;-74
2020/12/08 02:21:45;;;;;;;20.20;13.40;;;5.80;69.70;;;;;;2075249;28;20033;-74
2020/12/08 02:22:45;;;;;;;19.08;12.80;;;5.80;69.60;;;;;;2066412;28;20034;-76
2020/12/08 02:23:50;;;;;;;17.52;12.82;;;5.80;69.70;;;;;;2075590;28;20053;-76
2020/12/08 02:24:51;;;;;;;17.42;11.73;;;5.80;69.70;;;;;;2085301;28;20467;-76
2020/12/08 02:25:56;;;;;;;17.98;12.13;;;5.90;69.70;;;;;;2085149;28;20980;-73
2020/12/08 02:26:57;;;;;;;16.58;12.15;;;5.90;69.80;;;;;;2084814;28;20017;-76
2020/12/08 02:27:57;;;;;;;17.30;12.13;;;5.90;69.70;;;;;;2084210;28;20037;-76
2020/12/08 02:28:58;;;;;;;16.50;11.95;;;5.90;69.70;;;;;;2075425;28;20145;-76
2020/12/08 02:29:59;;;;;;;17.48;11.93;;;6.00;69.70;;;;;;2075802;28;20464;-76
2020/12/08 02:30:59;;;;;;;15.02;11.63;;;6.00;69.60;;;;;;2066501;28;20025;-76
2020/12/08 02:32:00;;;;;;;20.15;12.82;;;6.00;69.60;;;;;;2067139;28;20041;-76
2020/12/08 02:33:01;;;;;;;15.10;11.57;;;6.00;69.50;;;;;;2084600;28;20025;-76
2020/12/08 02:34:02;;;;;;;16.50;12.52;;;6.00;69.50;;;;;;2084491;28;20439;-77
2020/12/08 02:35:03;;;;;;;15.77;11.95;;;6.10;69.50;;;;;;2084602;28;20237;-77
2020/12/08 02:36:03;;;;;;;16.17;12.10;;;6.10;69.50;;;;;;2084406;28;20261;-76
2020/12/08 02:37:04;;;;;;;17.80;12.60;;;6.10;69.40;;;;;;2084522;28;20025;-76
2020/12/08 02:38:04;;;;;;;16.67;12.40;;;6.10;69.30;;;;;;2085237;28;20104;-75
2020/12/08 02:39:05;;;;;;;15.05;11.95;;;6.10;69.20;;;;;;2083627;28;20044;-77
2020/12/08 02:40:06;;;;;;;16.85;12.18;;;6.10;69.10;;;;;;2084951;28;20058;-76
2020/12/08 02:41:06;;;;;;;16.33;12.15;;;6.10;69.00;;;;;;2083992;28;20040;-77
2020/12/08 02:42:07;;;;;;;16.77;12.07;;;6.10;69.00;;;;;;2085771;28;20056;-77
2020/12/08 02:43:07;;;;;;;18.08;13.20;;;6.20;69.10;;;;;;2085084;28;20016;-76
2020/12/08 02:44:08;;;;;;;15.75;11.77;;;6.20;69.10;;;;;;2083713;28;20037;-77
2020/12/08 02:45:08;;;;;;;16.35;12.05;;;6.20;69.10;;;;;;2075073;28;21260;-78
2020/12/08 02:46:11;;;;;;;18.27;12.77;;;6.20;69.10;;;;;;2073787;28;20017;-76
2020/12/08 02:47:12;;;;;;;16.42;12.10;;;6.20;69.20;;;;;;2083991;28;20094;-76
2020/12/08 02:48:12;;;;;;;19.88;13.57;;;6.20;69.20;;;;;;2084481;28;20098;-76
2020/12/08 02:49:13;;;;;;;15.18;11.43;;;6.20;69.30;;;;;;2075633;28;20018;-76
2020/12/08 02:50:13;;;;;;;17.85;13.13;;;6.20;69.40;;;;;;2074902;28;20029;-76
2020/12/08 02:51:20;;;;;;;17.13;12.73;;;6.20;69.40;;;;;;2084534;28;20049;-76
2020/12/08 02:52:21;;;;;;;19.45;13.55;;;6.20;69.40;;;;;;2075662;28;20030;-76
2020/12/08 02:53:22;;;;;;;19.40;12.65;;;6.30;69.50;;;;;;2075189;28;20033;-76
2020/12/08 02:54:22;;;;;;;18.02;12.65;;;6.20;69.40;;;;;;2075696;28;20057;-75
2020/12/08 02:55:23;;;;;;;19.13;13.68;;;6.30;69.50;;;;;;2077461;28;20025;-76
2020/12/08 02:56:24;;;;;;;19.55;13.45;;;6.30;69.50;;;;;;2082840;28;20029;-78
2020/12/08 02:57:25;;;;;;;18.08;13.00;;;6.30;69.60;;;;;;2068439;28;20033;-76
2020/12/08 02:58:26;;;;;;;16.83;12.93;;;6.30;69.60;;;;;;2076120;28;20416;-76
2020/12/08 02:59:26;;;;;;;17.02;12.68;;;6.40;69.70;;;;;;2074940;28;20057;-77
2020/12/08 03:00:27;;;;;;;16.48;13.07;;;6.30;69.60;;;;;;2068233;28;20041;-76
2020/12/08 03:01:27;;;;;;;18.92;12.93;;;6.40;69.70;;;;;;2074863;28;20507;-77
2020/12/08 03:02:28;;;;;;;17.70;13.07;;;6.40;69.70;;;;;;2083878;28;20529;-76
2020/12/08 03:03:29;;;;;;;16.42;12.55;;;6.40;69.70;;;;;;2084260;28;20339;-76
2020/12/08 03:04:29;;;;;;;14.80;12.07;;;6.40;69.70;;;;;;2083631;28;20487;-77
2020/12/08 03:05:30;;;;;;;16.45;12.77;;;6.40;69.70;;;;;;2082948;28;20025;-76
2020/12/08 03:06:31;;;;;;;17.15;12.65;;;6.50;69.80;;;;;;2084476;28;20032;-76
2020/12/08 03:07:31;;;;;;;17.25;13.35;;;6.50;69.80;;;;;;2084204;28;20746;-76
2020/12/08 03:08:32;;;;;;;17.20;13.23;;;6.50;69.80;;;;;;2083799;28;20056;-77
2020/12/08 03:09:32;;;;;;;19.73;13.65;;;6.50;69.80;;;;;;2084523;28;20033;-77
2020/12/08 03:10:34;;;;;;;17.58;12.60;;;6.50;69.80;;;;;;2084241;28;20037;-76
2020/12/08 03:11:34;;;;;;;17.95;12.98;;;6.50;69.80;;;;;;2084004;28;20167;-76
2020/12/08 03:12:36;;;;;;;19.55;13.15;;;6.60;69.80;;;;;;2084047;28;20063;-76
2020/12/08 03:13:36;;;;;;;17.00;12.02;;;6.60;69.80;;;;;;2084148;28;20452;-76
2020/12/08 03:14:37;;;;;;;19.25;12.68;;;6.60;69.80;;;;;;2083348;28;20104;-77
2020/12/08 03:15:37;;;;;;;19.15;13.95;;;6.60;69.70;;;;;;2084105;28;20051;-76
2020/12/08 03:16:38;;;;;;;19.17;13.00;;;6.60;69.70;;;;;;2083317;28;20037;-76
2020/12/08 03:17:38;;;;;;;18.75;12.75;;;6.70;69.70;;;;;;2084981;28;20035;-76
2020/12/08 03:18:42;;;;;;;21.25;12.57;;;6.70;69.70;;;;;;2074117;28;20040;-75
2020/12/08 03:19:42;;;;;;;15.25;12.30;;;6.70;69.70;;;;;;2075582;28;20033;-77
2020/12/08 03:20:43;;;;;;;18.10;12.73;;;6.70;69.70;;;;;;2083923;28;20521;-76
2020/12/08 03:21:43;;;;;;;18.48;13.48;;;6.70;69.60;;;;;;2084271;28;20038;-76
2020/12/08 03:22:44;;;;;;;16.60;11.77;;;6.70;69.50;;;;;;2083293;28;20034;-75
2020/12/08 03:23:44;;;;;;;16.20;12.40;;;6.80;69.60;;;;;;2082921;28;20037;-76
2020/12/08 03:24:48;;;;;;;17.27;12.02;;;6.80;69.60;;;;;;2083598;28;20040;-76
2020/12/08 03:25:49;;;;;;;17.65;13.23;;;6.80;69.60;;;;;;2084472;28;20520;-76
2020/12/08 03:26:49;;;;;;;16.30;12.18;;;6.80;69.50;;;;;;2084149;28;20025;-76
2020/12/08 03:27:50;;;;;;;17.23;12.68;;;6.80;69.50;;;;;;2074107;28;20080;-77
2020/12/08 03:28:50;;;;;;;16.42;12.77;;;6.90;69.60;;;;;;2066766;28;20033;-76
2020/12/08 03:29:51;;;;;;;17.73;13.70;;;6.90;69.40;;;;;;2075044;28;20033;-76
2020/12/08 03:30:51;;;;;;;17.10;12.77;;;6.90;69.40;;;;;;2072527;28;20504;-76
2020/12/08 03:31:52;;;;;;;16.98;12.93;;;6.90;69.70;;;;;;2072242;28;20464;-76
2020/12/08 03:32:53;;;;;;;20.63;13.05;;;6.90;69.40;;;;;;2084018;28;20025;-77
2020/12/08 03:33:53;;;;;;;18.83;13.32;;;6.90;69.40;;;;;;2082697;28;20656;-76
2020/12/08 03:34:54;;;;;;;17.27;13.02;;;6.90;69.40;;;;;;2078738;28;20489;-76
2020/12/08 03:35:54;;;;;;;16.88;12.75;;;7.00;69.40;;;;;;2078102;28;20045;-76
2020/12/08 03:36:55;;;;;;;17.67;12.35;;;7.00;69.40;;;;;;2075270;28;20053;-76
2020/12/08 03:37:55;;;;;;;17.88;12.45;;;7.00;69.30;;;;;;2074269;28;20025;-76
2020/12/08 03:38:58;;;;;;;15.95;12.70;;;7.00;69.30;;;;;;2074733;28;20033;-76
2020/12/08 03:39:58;;;;;;;16.85;12.13;;;7.00;69.30;;;;;;2070081;28;20026;-76
2020/12/08 03:40:59;;;;;;;14.20;11.98;;;7.00;69.20;;;;;;2078174;28;20029;-77
2020/12/08 03:42:01;;;;;;;16.60;12.23;;;7.00;69.20;;;;;;2084046;28;20116;-76
2020/12/08 03:43:02;;;;;;;15.73;11.68;;;7.00;69.10;;;;;;2083490;28;20022;-76
2020/12/08 03:44:02;;;;;;;17.27;12.63;;;7.00;69.10;;;;;;2083911;28;20029;-76
2020/12/08 03:45:03;;;;;;;17.83;13.00;;;7.00;69.00;;;;;;2083920;28;20029;-77
2020/12/08 03:46:04;;;;;;;17.67;13.07;;;7.10;69.00;;;;;;2074583;28;20033;-75
2020/12/08 03:47:05;;;;;;;18.10;13.05;;;7.10;69.00;;;;;;2075145;28;20021;-76
2020/12/08 03:48:05;;;;;;;17.13;12.32;;;7.00;69.00;;;;;;2074754;28;20038;-76
2020/12/08 03:49:06;;;;;;;18.83;13.20;;;7.10;69.00;;;;;;2074651;28;20029;-76
2020/12/08 03:50:06;;;;;;;16.80;12.60;;;7.10;68.90;;;;;;2078454;28;20079;-76
2020/12/08 03:51:12;;;;;;;17.38;13.25;;;7.10;69.00;;;;;;2078378;28;20388;-76
2020/12/08 03:52:12;;;;;;;16.65;12.23;;;7.10;69.00;;;;;;2077402;28;20018;-76
2020/12/08 03:53:13;;;;;;;18.88;12.93;;;7.10;69.00;;;;;;2070113;28;20361;-76
2020/12/08 03:54:13;;;;;;;18.42;12.70;;;7.10;69.00;;;;;;2074678;28;20499;-76
2020/12/08 03:55:14;;;;;;;15.77;11.60;;;7.20;69.00;;;;;;2074723;28;20040;-77
2020/12/08 03:56:17;;;;;;;15.07;11.25;;;7.10;68.90;;;;;;2070610;28;20018;-77
2020/12/08 03:57:17;;;;;;;16.17;11.90;;;7.10;68.90;;;;;;2069977;28;20069;-77
2020/12/08 03:58:18;;;;;;;16.52;12.20;;;7.10;68.90;;;;;;2075204;28;20053;-75
2020/12/08 03:59:19;;;;;;;16.33;12.27;;;7.20;68.90;;;;;;2082804;28;20039;-76
2020/12/08 04:00:19;;;;;;;17.70;13.00;;;7.20;68.90;;;;;;2084027;28;20071;-76
2020/12/08 04:01:21;;;;;;;17.38;13.02;;;7.20;69.00;;;;;;2083500;28;20044;-76
2020/12/08 04:02:22;;;;;;;15.68;12.32;;;7.20;68.90;;;;;;2084441;28;20029;-75
2020/12/08 04:03:22;;;;;;;17.17;12.88;;;7.20;68.90;;;;;;2080566;28;20678;-76
2020/12/08 04:04:24;;;;;;;17.17;12.27;;;7.20;68.90;;;;;;2082243;28;20033;-76
2020/12/08 04:05:25;;;;;;;17.30;11.73;;;7.20;68.90;;;;;;2083142;28;20063;-76
2020/12/08 04:06:25;;;;;;;18.80;12.77;;;7.20;68.90;;;;;;2083847;28;20040;-76
2020/12/08 04:07:26;;;;;;;16.88;12.35;;;7.20;68.90;;;;;;2075669;28;20550;-76
2020/12/08 04:08:26;;;;;;;16.48;12.15;;;7.20;68.90;;;;;;2074630;28;20029;-76
2020/12/08 04:09:27;;;;;;;15.82;12.38;;;7.20;68.90;;;;;;2082070;28;20065;-76
2020/12/08 04:10:27;;;;;;;18.30;12.85;;;7.20;68.70;;;;;;2084640;28;20032;-76
2020/12/08 04:11:28;;;;;;;18.85;13.38;;;7.20;68.70;;;;;;2083362;28;20044;-77
2020/12/08 04:12:29;;;;;;;18.15;12.30;;;7.20;68.70;;;;;;2074738;28;20026;-77
2020/12/08 04:13:29;;;;;;;16.45;11.98;;;7.30;69.50;;;;;;2067700;28;20034;-76
2020/12/08 04:14:30;;;;;;;16.02;12.18;;;7.20;68.70;;;;;;2073107;28;20361;-76
2020/12/08 04:15:30;;;;;;;19.27;13.05;;;7.30;68.80;;;;;;2084376;28;20455;-76
2020/12/08 04:16:33;;;;;;;17.02;11.63;;;7.30;68.80;;;;;;2083998;28;20033;-76
2020/12/08 04:17:33;;;;;;;15.95;12.05;;;7.30;68.80;;;;;;2083421;28;20036;-76
2020/12/08 04:18:34;;;;;;;16.42;12.35;;;7.30;68.80;;;;;;2075092;28;20068;-76
2020/12/08 04:19:34;;;;;;;18.95;13.52;;;7.30;68.80;;;;;;2075807;28;20026;-76
2020/12/08 04:20:35;;;;;;;18.73;13.15;;;7.30;68.80;;;;;;2083007;28;20020;-76
2020/12/08 04:21:35;;;;;;;16.65;11.35;;;7.30;68.80;;;;;;2084043;28;20096;-76
2020/12/08 04:22:36;;;;;;;16.45;12.45;;;7.30;68.80;;;;;;2085055;28;20259;-76
2020/12/08 04:23:36;;;;;;;16.95;11.93;;;7.30;68.80;;;;;;2083298;28;20256;-76
2020/12/08 04:24:37;;;;;;;16.67;12.60;;;7.30;68.80;;;;;;2084689;28;20499;-76
2020/12/08 04:25:39;;;;;;;17.55;12.55;;;7.30;68.80;;;;;;2083545;28;20029;-76
2020/12/08 04:26:44;;;;;;;18.73;12.68;;;7.30;68.80;;;;;;2083946;28;20435;-76
2020/12/08 04:27:45;;;;;;;17.55;12.73;;;7.40;68.80;;;;;;2084374;28;20075;-76
2020/12/08 04:28:45;;;;;;;16.25;12.40;;;7.40;68.80;;;;;;2083524;28;20025;-76
2020/12/08 04:29:46;;;;;;;17.67;12.68;;;7.40;68.70;;;;;;2082811;28;20037;-76
2020/12/08 04:30:46;;;;;;;17.85;11.98;;;7.40;68.70;;;;;;2074782;28;20116;-76
2020/12/08 04:31:49;;;;;;;18.15;12.48;;;7.40;68.60;;;;;;2074455;28;20048;-76
2020/12/08 04:32:49;;;;;;;16.33;12.70;;;7.40;68.60;;;;;;2083128;28;20032;-77
2020/12/08 04:33:50;;;;;;;14.52;11.48;;;7.40;68.60;;;;;;2083964;28;20057;-76
2020/12/08 04:34:50;;;;;;;17.00;13.35;;;7.40;68.70;;;;;;2083655;28;20033;-76
2020/12/08 04:35:51;;;;;;;17.40;12.80;;;7.40;68.50;;;;;;2084536;28;20033;-76
2020/12/08 04:36:52;;;;;;;19.45;13.75;;;7.40;68.50;;;;;;2083640;28;20079;-76
2020/12/08 04:37:52;;;;;;;18.13;12.55;;;7.40;68.50;;;;;;2074802;28;20060;-76
2020/12/08 04:38:53;;;;;;;16.00;11.73;;;7.40;68.60;;;;;;2074569;28;20037;-76
2020/12/08 04:39:54;;;;;;;15.43;11.35;;;7.40;68.60;;;;;;2083977;28;20352;-76
2020/12/08 04:40:54;;;;;;;15.90;11.80;;;7.40;68.60;;;;;;2082896;28;20040;-76
2020/12/08 04:41:55;;;;;;;15.57;12.25;;;7.40;68.70;;;;;;2084724;28;20065;-76
2020/12/08 04:42:57;;;;;;;17.25;12.80;;;7.40;68.70;;;;;;2084131;28;20052;-76
2020/12/08 04:43:59;;;;;;;17.02;12.35;;;7.40;68.70;;;;;;2084737;28;20054;-76
2020/12/08 04:44:59;;;;;;;16.95;12.48;;;7.40;68.70;;;;;;2079317;28;20025;-77
2020/12/08 04:46:00;;;;;;;17.40;11.98;;;7.50;68.70;;;;;;2071230;28;20014;-77
2020/12/08 04:47:04;;;;;;;17.10;12.15;;;7.50;68.80;;;;;;2075059;28;20017;-76
2020/12/08 04:48:05;;;;;;;16.05;12.27;;;7.50;68.80;;;;;;2076149;28;20029;-76
2020/12/08 04:49:06;;;;;;;16.65;12.82;;;7.50;68.70;;;;;;2076144;28;20119;-76
2020/12/08 04:50:07;;;;;;;15.65;11.93;;;7.50;68.70;;;;;;2076329;28;20024;-76
2020/12/08 04:51:07;;;;;;;16.90;12.38;;;7.50;68.70;;;;;;2072075;28;20033;-76
2020/12/08 04:52:09;;;;;;;16.02;12.68;;;7.50;68.70;;;;;;2076300;28;20045;-76
2020/12/08 04:53:10;;;;;;;15.98;11.88;;;7.50;68.70;;;;;;2085388;28;20107;-76
2020/12/08 04:54:10;;;;;;;16.95;12.43;;;7.50;68.70;;;;;;2085083;28;20028;-76
2020/12/08 04:55:11;;;;;;;17.52;12.60;;;7.50;68.70;;;;;;2084267;28;20342;-75
2020/12/08 04:56:12;;;;;;;20.25;13.50;;;7.50;68.80;;;;;;2084417;28;20608;-76
2020/12/08 04:57:12;;;;;;;17.60;12.70;;;7.60;68.80;;;;;;2085581;28;20029;-76
2020/12/08 04:58:13;;;;;;;15.73;13.05;;;7.50;68.80;;;;;;2078252;28;20022;-75
2020/12/08 04:59:22;;;;;;;17.58;11.95;;;7.60;68.90;;;;;;2060606;28;20368;-76
2020/12/08 05:00:22;;;;;;;14.30;11.77;;;7.60;68.90;;;;;;2064830;28;20034;-76
2020/12/08 05:01:26;;;;;;;17.50;12.48;;;7.60;68.90;;;;;;2074466;28;20034;-77
2020/12/08 05:02:27;;;;;;;16.40;12.35;;;7.60;68.90;;;;;;2083728;28;20095;-76
2020/12/08 05:03:32;;;;;;;19.33;12.88;;;7.60;68.80;;;;;;2084028;28;20037;-76
2020/12/08 05:04:33;;;;;;;16.88;12.43;;;7.60;68.80;;;;;;2085114;28;20045;-77
2020/12/08 05:05:41;;;;;;;17.00;12.73;;;7.60;68.80;;;;;;2079224;28;20708;-75
2020/12/08 05:06:42;;;;;;;16.23;11.88;;;7.60;68.70;;;;;;2080066;28;20541;-76
2020/12/08 05:07:43;;;;;;;18.35;13.00;;;7.60;68.70;;;;;;2079648;28;20101;-75
2020/12/08 05:08:43;;;;;;;17.92;12.90;;;7.60;68.70;;;;;;2078817;28;21511;-76
2020/12/08 05:09:47;;;;;;;16.35;12.73;;;7.60;68.70;;;;;;2085209;28;20065;-77
2020/12/08 05:10:48;;;;;;;15.95;12.50;;;7.60;68.60;;;;;;2085523;28;20675;-76
2020/12/08 05:11:56;;;;;;;16.40;12.90;;;7.60;68.70;;;;;;2084946;28;20044;-76
2020/12/08 05:12:57;;;;;;;17.60;12.57;;;7.60;68.70;;;;;;2084813;28;20080;-75
2020/12/08 05:14:01;;;;;;;16.10;12.13;;;7.70;68.80;;;;;;2084175;28;20060;-75